sensor_id;sensor_type;location;lat;lon;timestamp;pressure;altitude;pressure_sealevel;temperature;humidity
14117;BME280;7137;51.436;6.544;2023-02-23T00:02:58;100840.06;;;10.87;100.00
14117;BME280;7137;51.436;6.544;2023-02-23T00:06:01;100834.00;;;10.87;100.00
14117;BME280;7137;51.436;6.544;2023-02-23T00:09:05;100840.97;;;10.86;100.00
14117;BME280;7137;51.436;6.544;2023-02-23T00:12:14;100840.91;;;10.88;100.00
14117;BME280;7137;51.436;6.544;2023-02-23T00:15:16;100843.44;;;10.91;100.00
14117;BME280;7137;51.436;6.544;2023-02-23T00:18:18;100845.28;;;10.87;100.00
14117;BME280;7137;51.436;6.544;2023-02-23T00:21:21;100836.66;;;10.85;100.00
14117;BME280;7137;51.436;6.544;2023-02-23T00:24:25;100827.97;;;10.83;100.00
14117;BME280;7137;51.436;6.544;2023-02-23T00:27:27;100832.34;;;10.83;100.00
14117;BME280;7137;51.436;6.544;2023-02-23T00:30:28;100828.97;;;10.79;100.00
14117;BME280;7137;51.436;6.544;2023-02-23T00:33:30;100832.50;;;10.78;100.00
14117;BME280;7137;51.436;6.544;2023-02-23T00:36:34;100832.53;;;10.77;100.00
14117;BME280;7137;51.436;6.544;2023-02-23T00:39:37;100829.94;;;10.77;100.00
14117;BME280;7137;51.436;6.544;2023-02-23T00:42:40;100831.66;;;10.78;100.00
14117;BME280;7137;51.436;6.544;2023-02-23T00:45:41;100829.94;;;10.77;100.00
14117;BME280;7137;51.436;6.544;2023-02-23T00:48:44;100829.09;;;10.76;100.00
14117;BME280;7137;51.436;6.544;2023-02-23T00:51:46;100825.63;;;10.76;100.00
14117;BME280;7137;51.436;6.544;2023-02-23T00:54:49;100820.50;;;10.73;100.00
14117;BME280;7137;51.436;6.544;2023-02-23T00:57:51;100823.09;;;10.73;100.00
14117;BME280;7137;51.436;6.544;2023-02-23T01:00:52;100821.41;;;10.72;100.00
14117;BME280;7137;51.436;6.544;2023-02-23T01:03:54;100815.34;;;10.69;100.00
14117;BME280;7137;51.436;6.544;2023-02-23T01:06:55;100823.16;;;10.69;100.00
14117;BME280;7137;51.436;6.544;2023-02-23T01:09:58;100820.69;;;10.65;100.00
14117;BME280;7137;51.436;6.544;2023-02-23T01:13:00;100819.00;;;10.64;100.00
14117;BME280;7137;51.436;6.544;2023-02-23T01:16:03;100819.94;;;10.61;100.00
14117;BME280;7137;51.436;6.544;2023-02-23T01:19:06;100825.19;;;10.61;100.00
14117;BME280;7137;51.436;6.544;2023-02-23T01:22:07;100819.00;;;10.64;100.00
14117;BME280;7137;51.436;6.544;2023-02-23T01:25:10;100820.75;;;10.63;100.00
14117;BME280;7137;51.436;6.544;2023-02-23T01:28:12;100819.09;;;10.61;100.00
14117;BME280;7137;51.436;6.544;2023-02-23T01:31:14;100818.28;;;10.59;100.00
14117;BME280;7137;51.436;6.544;2023-02-23T01:34:17;100827.94;;;10.57;100.00
14117;BME280;7137;51.436;6.544;2023-02-23T01:37:20;100825.31;;;10.57;100.00
14117;BME280;7137;51.436;6.544;2023-02-23T01:40:24;100825.31;;;10.57;100.00
14117;BME280;7137;51.436;6.544;2023-02-23T01:43:29;100820.13;;;10.55;100.00
14117;BME280;7137;51.436;6.544;2023-02-23T01:46:31;100822.72;;;10.55;100.00
14117;BME280;7137;51.436;6.544;2023-02-23T01:49:34;100826.25;;;10.54;100.00
14117;BME280;7137;51.436;6.544;2023-02-23T01:52:36;100824.47;;;10.55;100.00
14117;BME280;7137;51.436;6.544;2023-02-23T01:55:40;100824.47;;;10.55;100.00
14117;BME280;7137;51.436;6.544;2023-02-23T01:58:45;100827.13;;;10.53;100.00
14117;BME280;7137;51.436;6.544;2023-02-23T02:01:47;100822.78;;;10.54;100.00
14117;BME280;7137;51.436;6.544;2023-02-23T02:04:49;100828.84;;;10.56;100.00
14117;BME280;7137;51.436;6.544;2023-02-23T02:07:51;100824.53;;;10.53;100.00
14117;BME280;7137;51.436;6.544;2023-02-23T02:10:59;100821.03;;;10.54;100.00
14117;BME280;7137;51.436;6.544;2023-02-23T02:14:11;100828.00;;;10.54;100.00
14117;BME280;7137;51.436;6.544;2023-02-23T02:17:24;100823.69;;;10.53;100.00
14117;BME280;7137;51.436;6.544;2023-02-23T02:21:01;100823.63;;;10.54;100.00
14117;BME280;7137;51.436;6.544;2023-02-23T02:24:29;100824.53;;;10.53;100.00
14117;BME280;7137;51.436;6.544;2023-02-23T02:27:52;100828.91;;;10.53;100.00
14117;BME280;7137;51.436;6.544;2023-02-23T02:35:05;100822.66;;;10.27;100.00
14117;BME280;7137;51.436;6.544;2023-02-23T02:38:18;100825.72;;;10.43;100.00
14117;BME280;7137;51.436;6.544;2023-02-23T02:41:33;100818.69;;;10.45;100.00
14117;BME280;7137;51.436;6.544;2023-02-23T02:44:49;100816.88;;;10.47;100.00
14117;BME280;7137;51.436;6.544;2023-02-23T02:47:55;100817.78;;;10.46;100.00
14117;BME280;7137;51.436;6.544;2023-02-23T02:51:04;100821.22;;;10.48;100.00
14117;BME280;7137;51.436;6.544;2023-02-23T02:54:15;100814.28;;;10.47;100.00
14117;BME280;7137;51.436;6.544;2023-02-23T02:57:24;100807.25;;;10.49;100.00
14117;BME280;7137;51.436;6.544;2023-02-23T03:00:34;100812.31;;;10.54;100.00
14117;BME280;7137;51.436;6.544;2023-02-23T03:03:54;100810.72;;;10.50;100.00
14117;BME280;7137;51.436;6.544;2023-02-23T03:07:19;100814.38;;;10.44;100.00
14117;BME280;7137;51.436;6.544;2023-02-23T03:10:46;100813.53;;;10.44;100.00
14117;BME280;7137;51.436;6.544;2023-02-23T03:14:17;100812.63;;;10.45;100.00
14117;BME280;7137;51.436;6.544;2023-02-23T03:17:42;100824.03;;;10.42;100.00
14117;BME280;7137;51.436;6.544;2023-02-23T03:21:07;100814.50;;;10.39;100.00
14117;BME280;7137;51.436;6.544;2023-02-23T03:24:37;100826.13;;;10.29;100.00
14117;BME280;7137;51.436;6.544;2023-02-23T03:28:06;100824.19;;;10.36;100.00
14117;BME280;7137;51.436;6.544;2023-02-23T03:31:34;100825.63;;;10.46;100.00
14117;BME280;7137;51.436;6.544;2023-02-23T03:34:59;100832.25;;;10.58;100.00
14117;BME280;7137;51.436;6.544;2023-02-23T03:38:26;100832.31;;;10.55;100.00
14117;BME280;7137;51.436;6.544;2023-02-23T03:41:49;100835.53;;;10.35;100.00
14117;BME280;7137;51.436;6.544;2023-02-23T03:45:15;100833.72;;;10.37;100.00
14117;BME280;7137;51.436;6.544;2023-02-23T03:48:37;100825.94;;;10.35;100.00
14117;BME280;7137;51.436;6.544;2023-02-23T03:52:00;100830.34;;;10.33;100.00
14117;BME280;7137;51.436;6.544;2023-02-23T03:55:24;100835.47;;;10.36;100.00
14117;BME280;7137;51.436;6.544;2023-02-23T03:58:48;100839.78;;;10.37;100.00
14117;BME280;7137;51.436;6.544;2023-02-23T04:02:13;100838.81;;;10.42;100.00
14117;BME280;7137;51.436;6.544;2023-02-23T04:05:37;100839.75;;;10.39;100.00
14117;BME280;7137;51.436;6.544;2023-02-23T04:09:00;100843.41;;;10.33;100.00
14117;BME280;7137;51.436;6.544;2023-02-23T04:12:25;100842.50;;;10.34;100.00
14117;BME280;7137;51.436;6.544;2023-02-23T04:15:49;100845.19;;;10.31;100.00
14117;BME280;7137;51.436;6.544;2023-02-23T04:18:52;100841.66;;;10.34;100.00
14117;BME280;7137;51.436;6.544;2023-02-23T04:21:53;100841.69;;;10.32;100.00
14117;BME280;7137;51.436;6.544;2023-02-23T04:24:55;100847.38;;;10.47;100.00
14117;BME280;7137;51.436;6.544;2023-02-23T04:27:56;100843.81;;;10.49;100.00
14117;BME280;7137;51.436;6.544;2023-02-23T04:30:58;100848.09;;;10.52;100.00
14117;BME280;7137;51.436;6.544;2023-02-23T04:34:01;100848.28;;;10.46;100.00
14117;BME280;7137;51.436;6.544;2023-02-23T04:37:03;100850.88;;;10.46;100.00
14117;BME280;7137;51.436;6.544;2023-02-23T04:40:06;100848.22;;;10.47;100.00
14117;BME280;7137;51.436;6.544;2023-02-23T04:43:09;100853.91;;;10.61;100.00
14117;BME280;7137;51.436;6.544;2023-02-23T04:46:12;100843.06;;;10.46;100.00
14117;BME280;7137;51.436;6.544;2023-02-23T04:49:15;100849.19;;;10.45;100.00
14117;BME280;7137;51.436;6.544;2023-02-23T04:52:16;100853.56;;;10.44;100.00
14117;BME280;7137;51.436;6.544;2023-02-23T04:55:20;100854.34;;;10.46;100.00
14117;BME280;7137;51.436;6.544;2023-02-23T04:58:22;100852.56;;;10.48;100.00
14117;BME280;7137;51.436;6.544;2023-02-23T05:01:24;100854.41;;;10.45;100.00
14117;BME280;7137;51.436;6.544;2023-02-23T05:04:28;100847.44;;;10.45;100.00
14117;BME280;7137;51.436;6.544;2023-02-23T05:07:29;100856.88;;;10.49;100.00
14117;BME280;7137;51.436;6.544;2023-02-23T05:10:32;100858.53;;;10.52;100.00
14117;BME280;7137;51.436;6.544;2023-02-23T05:13:33;100862.94;;;10.50;100.00
14117;BME280;7137;51.436;6.544;2023-02-23T05:16:35;100859.22;;;10.58;100.00
14117;BME280;7137;51.436;6.544;2023-02-23T05:19:38;100860.13;;;10.57;100.00
14117;BME280;7137;51.436;6.544;2023-02-23T05:22:40;100861.84;;;10.58;100.00
14117;BME280;7137;51.436;6.544;2023-02-23T05:25:42;100857.88;;;10.75;100.00
14117;BME280;7137;51.436;6.544;2023-02-23T05:28:44;100864.63;;;10.52;100.00
14117;BME280;7137;51.436;6.544;2023-02-23T05:31:46;100871.72;;;10.47;100.00
14117;BME280;7137;51.436;6.544;2023-02-23T05:34:49;100861.88;;;10.57;100.00
14117;BME280;7137;51.436;6.544;2023-02-23T05:37:51;100865.50;;;10.81;98.67
14117;BME280;7137;51.436;6.544;2023-02-23T05:40:53;100872.25;;;10.60;100.00
14117;BME280;7137;51.436;6.544;2023-02-23T05:43:54;100870.19;;;10.71;99.18
14117;BME280;7137;51.436;6.544;2023-02-23T05:46:57;100873.06;;;10.62;98.63
14117;BME280;7137;51.436;6.544;2023-02-23T05:50:00;100870.31;;;10.35;99.16
14117;BME280;7137;51.436;6.544;2023-02-23T05:53:02;100869.13;;;10.15;99.73
14117;BME280;7137;51.436;6.544;2023-02-23T05:56:06;100869.38;;;10.05;100.00
14117;BME280;7137;51.436;6.544;2023-02-23T05:59:08;100875.31;;;10.10;100.00
14117;BME280;7137;51.436;6.544;2023-02-23T06:02:12;100882.28;;;10.10;100.00
14117;BME280;7137;51.436;6.544;2023-02-23T06:05:15;100870.47;;;9.97;100.00
14117;BME280;7137;51.436;6.544;2023-02-23T06:08:17;100886.25;;;9.92;100.00
14117;BME280;7137;51.436;6.544;2023-02-23T06:11:19;100880.00;;;9.99;100.00
14117;BME280;7137;51.436;6.544;2023-02-23T06:14:20;100877.78;;;9.82;100.00
14117;BME280;7137;51.436;6.544;2023-02-23T06:17:22;100882.47;;;10.04;100.00
14117;BME280;7137;51.436;6.544;2023-02-23T06:20:25;100885.97;;;10.03;100.00
14117;BME280;7137;51.436;6.544;2023-02-23T06:23:27;100888.59;;;10.03;100.00
14117;BME280;7137;51.436;6.544;2023-02-23T06:26:29;100897.31;;;10.02;100.00
14117;BME280;7137;51.436;6.544;2023-02-23T06:29:31;100901.72;;;9.98;100.00
14117;BME280;7137;51.436;6.544;2023-02-23T06:32:33;100905.97;;;10.04;100.00
14117;BME280;7137;51.436;6.544;2023-02-23T06:35:36;100909.56;;;9.98;100.00
14117;BME280;7137;51.436;6.544;2023-02-23T06:38:37;100908.97;;;9.89;100.00
14117;BME280;7137;51.436;6.544;2023-02-23T06:41:39;100912.25;;;9.95;100.00
14117;BME280;7137;51.436;6.544;2023-02-23T06:44:40;100920.84;;;10.00;100.00
14117;BME280;7137;51.436;6.544;2023-02-23T06:47:42;100916.88;;;9.84;100.00
14117;BME280;7137;51.436;6.544;2023-02-23T06:50:45;100925.81;;;9.75;100.00
14117;BME280;7137;51.436;6.544;2023-02-23T06:53:46;100930.88;;;9.81;100.00
14117;BME280;7137;51.436;6.544;2023-02-23T06:56:48;100934.41;;;9.79;100.00
14117;BME280;7137;51.436;6.544;2023-02-23T06:59:50;100937.03;;;9.79;100.00
14117;BME280;7137;51.436;6.544;2023-02-23T07:02:52;100932.88;;;9.72;100.00
14117;BME280;7137;51.436;6.544;2023-02-23T07:05:55;100933.81;;;9.68;100.00
14117;BME280;7137;51.436;6.544;2023-02-23T07:08:57;100936.34;;;9.35;100.00
14117;BME280;7137;51.436;6.544;2023-02-23T07:11:58;100944.72;;;9.48;100.00
14117;BME280;7137;51.436;6.544;2023-02-23T07:15:00;100949.13;;;9.46;100.00
14117;BME280;7137;51.436;6.544;2023-02-23T07:18:02;100948.19;;;9.48;100.00
14117;BME280;7137;51.436;6.544;2023-02-23T07:21:05;100952.25;;;9.62;100.00
14117;BME280;7137;51.436;6.544;2023-02-23T07:24:07;100948.13;;;9.51;100.00
14117;BME280;7137;51.436;6.544;2023-02-23T07:27:08;100953.22;;;9.58;100.00
14117;BME280;7137;51.436;6.544;2023-02-23T07:30:11;100962.72;;;9.60;100.00
14117;BME280;7137;51.436;6.544;2023-02-23T07:33:13;100962.78;;;9.57;100.00
14117;BME280;7137;51.436;6.544;2023-02-23T07:36:15;100963.47;;;9.64;100.00
14117;BME280;7137;51.436;6.544;2023-02-23T07:39:17;100967.72;;;9.68;100.00
14117;BME280;7137;51.436;6.544;2023-02-23T07:42:20;100967.91;;;9.60;100.00
14117;BME280;7137;51.436;6.544;2023-02-23T07:45:22;100966.44;;;9.48;100.00
14117;BME280;7137;51.436;6.544;2023-02-23T07:48:25;100969.06;;;9.48;100.00
14117;BME280;7137;51.436;6.544;2023-02-23T07:51:28;100971.03;;;9.37;100.00
14117;BME280;7137;51.436;6.544;2023-02-23T07:54:29;100972.72;;;9.40;100.00
14117;BME280;7137;51.436;6.544;2023-02-23T07:57:31;100979.59;;;9.44;100.00
14117;BME280;7137;51.436;6.544;2023-02-23T08:00:33;100978.59;;;9.49;100.00
14117;BME280;7137;51.436;6.544;2023-02-23T08:03:35;100984.84;;;9.41;100.00
14117;BME280;7137;51.436;6.544;2023-02-23T08:06:39;100992.69;;;9.41;100.00
14117;BME280;7137;51.436;6.544;2023-02-23T08:09:40;100982.25;;;9.41;100.00
14117;BME280;7137;51.436;6.544;2023-02-23T08:12:42;100980.47;;;9.44;100.00
14117;BME280;7137;51.436;6.544;2023-02-23T08:15:44;100982.84;;;9.53;100.00
14117;BME280;7137;51.436;6.544;2023-02-23T08:18:46;100994.97;;;9.55;100.00
14117;BME280;7137;51.436;6.544;2023-02-23T08:21:49;100999.25;;;9.59;100.00
14117;BME280;7137;51.436;6.544;2023-02-23T08:24:51;101004.75;;;9.46;100.00
14117;BME280;7137;51.436;6.544;2023-02-23T08:27:53;101007.19;;;9.52;100.00
14117;BME280;7137;51.436;6.544;2023-02-23T08:30:54;101010.00;;;9.45;100.00
14117;BME280;7137;51.436;6.544;2023-02-23T08:33:56;101013.47;;;9.45;100.00
14117;BME280;7137;51.436;6.544;2023-02-23T08:36:59;101012.34;;;9.57;100.00
14117;BME280;7137;51.436;6.544;2023-02-23T08:40:01;101006.03;;;9.66;100.00
14117;BME280;7137;51.436;6.544;2023-02-23T08:43:02;101011.66;;;9.85;100.00
14117;BME280;7137;51.436;6.544;2023-02-23T08:46:04;101018.63;;;9.84;100.00
14117;BME280;7137;51.436;6.544;2023-02-23T08:49:06;101017.25;;;10.06;100.00
14117;BME280;7137;51.436;6.544;2023-02-23T08:52:13;101021.84;;;10.32;100.00
14117;BME280;7137;51.436;6.544;2023-02-23T08:55:14;101027.41;;;10.53;99.79
14117;BME280;7137;51.436;6.544;2023-02-23T08:58:17;101026.69;;;10.48;98.55
14117;BME280;7137;51.436;6.544;2023-02-23T09:01:20;101028.38;;;10.13;99.81
14117;BME280;7137;51.436;6.544;2023-02-23T09:04:22;101024.81;;;9.80;99.66
14117;BME280;7137;51.436;6.544;2023-02-23T09:07:25;101038.00;;;10.11;100.00
14117;BME280;7137;51.436;6.544;2023-02-23T09:10:26;101040.44;;;10.19;99.89
14117;BME280;7137;51.436;6.544;2023-02-23T09:13:28;101032.94;;;10.40;100.00
14117;BME280;7137;51.436;6.544;2023-02-23T09:16:30;101047.06;;;10.33;98.78
14117;BME280;7137;51.436;6.544;2023-02-23T09:19:31;101052.72;;;10.51;98.71
14117;BME280;7137;51.436;6.544;2023-02-23T09:22:34;101054.13;;;10.30;97.97
14117;BME280;7137;51.436;6.544;2023-02-23T09:25:39;101053.09;;;10.35;98.87
14117;BME280;7137;51.436;6.544;2023-02-23T09:28:42;101055.78;;;10.32;97.86
14117;BME280;7137;51.436;6.544;2023-02-23T09:31:43;101050.34;;;10.42;98.34
14117;BME280;7137;51.436;6.544;2023-02-23T09:34:45;101046.91;;;10.39;97.06
14117;BME280;7137;51.436;6.544;2023-02-23T09:37:50;101055.19;;;10.20;98.13
14117;BME280;7137;51.436;6.544;2023-02-23T09:40:54;101061.09;;;10.29;98.31
14117;BME280;7137;51.436;6.544;2023-02-23T09:44:00;101057.47;;;10.35;97.99
14117;BME280;7137;51.436;6.544;2023-02-23T09:47:17;101067.44;;;10.18;97.54
14117;BME280;7137;51.436;6.544;2023-02-23T09:50:23;101072.31;;;10.33;97.96
14117;BME280;7137;51.436;6.544;2023-02-23T09:53:35;101072.50;;;10.25;97.58
14117;BME280;7137;51.436;6.544;2023-02-23T09:56:40;101073.06;;;10.38;98.56
14117;BME280;7137;51.436;6.544;2023-02-23T09:59:43;101088.47;;;10.49;98.15
14117;BME280;7137;51.436;6.544;2023-02-23T10:02:59;101091.91;;;10.14;97.90
14117;BME280;7137;51.436;6.544;2023-02-23T10:06:07;101090.19;;;10.11;99.85
14117;BME280;7137;51.436;6.544;2023-02-23T10:09:17;101093.22;;;10.33;98.66
14117;BME280;7137;51.436;6.544;2023-02-23T10:12:26;101085.31;;;9.97;98.61
14117;BME280;7137;51.436;6.544;2023-02-23T10:15:35;101099.38;;;9.92;99.29
14117;BME280;7137;51.436;6.544;2023-02-23T10:18:46;101099.25;;;9.96;98.19
14117;BME280;7137;51.436;6.544;2023-02-23T10:21:54;101101.72;;;10.02;99.28
14117;BME280;7137;51.436;6.544;2023-02-23T10:25:01;101103.91;;;10.21;98.85
14117;BME280;7137;51.436;6.544;2023-02-23T10:28:05;101108.16;;;10.26;97.76
14117;BME280;7137;51.436;6.544;2023-02-23T10:31:25;101109.91;;;10.26;98.33
14117;BME280;7137;51.436;6.544;2023-02-23T10:34:28;101106.09;;;10.39;97.23
14117;BME280;7137;51.436;6.544;2023-02-23T10:37:31;101106.25;;;10.33;97.40
14117;BME280;7137;51.436;6.544;2023-02-23T10:40:34;101114.19;;;10.64;98.51
14117;BME280;7137;51.436;6.544;2023-02-23T10:43:35;101109.44;;;10.80;97.89
14117;BME280;7137;51.436;6.544;2023-02-23T10:46:38;101111.22;;;11.10;96.07
14117;BME280;7137;51.436;6.544;2023-02-23T10:49:43;101111.22;;;11.10;94.17
14117;BME280;7137;51.436;6.544;2023-02-23T10:52:47;101114.28;;;10.93;92.81
14117;BME280;7137;51.436;6.544;2023-02-23T10:56:02;101105.00;;;10.82;93.28
14117;BME280;7137;51.436;6.544;2023-02-23T10:59:18;101109.50;;;10.77;93.00
14117;BME280;7137;51.436;6.544;2023-02-23T11:02:22;101110.47;;;10.74;93.22
14117;BME280;7137;51.436;6.544;2023-02-23T11:05:30;101114.16;;;10.65;93.26
14117;BME280;7137;51.436;6.544;2023-02-23T11:08:33;101119.53;;;10.59;94.99
14117;BME280;7137;51.436;6.544;2023-02-23T11:11:36;101120.19;;;10.67;94.48
14117;BME280;7137;51.436;6.544;2023-02-23T11:14:38;101119.28;;;10.70;94.21
14117;BME280;7137;51.436;6.544;2023-02-23T11:17:39;101121.69;;;10.44;94.24
14117;BME280;7137;51.436;6.544;2023-02-23T11:20:41;101126.19;;;10.37;96.35
14117;BME280;7137;51.436;6.544;2023-02-23T11:23:43;101124.50;;;10.34;96.29
14117;BME280;7137;51.436;6.544;2023-02-23T11:26:47;101126.63;;;10.54;96.57
14117;BME280;7137;51.436;6.544;2023-02-23T11:29:53;101126.88;;;10.45;95.82
14117;BME280;7137;51.436;6.544;2023-02-23T11:32:58;101121.94;;;10.33;95.27
14117;BME280;7137;51.436;6.544;2023-02-23T11:36:17;101119.88;;;10.07;95.95
14117;BME280;7137;51.436;6.544;2023-02-23T11:39:26;101113.44;;;10.23;97.21
14117;BME280;7137;51.436;6.544;2023-02-23T11:42:30;101115.09;;;10.27;97.24
14117;BME280;7137;51.436;6.544;2023-02-23T11:45:37;101117.13;;;10.15;96.17
14117;BME280;7137;51.436;6.544;2023-02-23T11:48:43;101113.47;;;9.83;98.66
14117;BME280;7137;51.436;6.544;2023-02-23T11:51:50;101111.72;;;9.83;98.17
14117;BME280;7137;51.436;6.544;2023-02-23T11:54:56;101116.47;;;10.05;98.28
14117;BME280;7137;51.436;6.544;2023-02-23T11:58:20;101116.66;;;9.96;98.10
14117;BME280;7137;51.436;6.544;2023-02-23T12:01:34;101108.91;;;9.93;96.60
14117;BME280;7137;51.436;6.544;2023-02-23T12:04:39;101101.78;;;10.01;97.35
14117;BME280;7137;51.436;6.544;2023-02-23T12:07:53;101098.63;;;10.24;97.04
14117;BME280;7137;51.436;6.544;2023-02-23T12:10:57;101095.66;;;10.39;96.40
14117;BME280;7137;51.436;6.544;2023-02-23T12:14:06;101098.22;;;10.42;96.44
14117;BME280;7137;51.436;6.544;2023-02-23T12:17:15;101089.75;;;10.66;95.44
14117;BME280;7137;51.436;6.544;2023-02-23T12:20:22;101091.53;;;10.97;93.72
14117;BME280;7137;51.436;6.544;2023-02-23T12:23:27;101099.97;;;11.08;92.13
14117;BME280;7137;51.436;6.544;2023-02-23T12:26:33;101105.63;;;11.24;92.54
14117;BME280;7137;51.436;6.544;2023-02-23T12:29:47;101105.06;;;11.44;91.22
14117;BME280;7137;51.436;6.544;2023-02-23T12:32:55;101104.19;;;11.14;89.57
14117;BME280;7137;51.436;6.544;2023-02-23T12:36:02;101102.25;;;10.88;91.76
14117;BME280;7137;51.436;6.544;2023-02-23T12:39:10;101103.97;;;10.55;91.99
14117;BME280;7137;51.436;6.544;2023-02-23T12:42:22;101102.53;;;10.43;93.10
14117;BME280;7137;51.436;6.544;2023-02-23T12:45:34;101096.34;;;10.47;92.63
14117;BME280;7137;51.436;6.544;2023-02-23T12:48:45;101100.44;;;10.22;93.10
14117;BME280;7137;51.436;6.544;2023-02-23T12:51:50;101094.06;;;10.33;93.59
14117;BME280;7137;51.436;6.544;2023-02-23T12:54:53;101096.00;;;10.25;94.34
14117;BME280;7137;51.436;6.544;2023-02-23T12:58:00;101091.25;;;10.43;94.03
14117;BME280;7137;51.436;6.544;2023-02-23T13:01:08;101089.81;;;10.63;92.83
14117;BME280;7137;51.436;6.544;2023-02-23T13:04:22;101091.75;;;10.89;91.79
14117;BME280;7137;51.436;6.544;2023-02-23T13:07:31;101103.75;;;10.96;90.70
14117;BME280;7137;51.436;6.544;2023-02-23T13:10:43;101103.88;;;10.92;90.81
14117;BME280;7137;51.436;6.544;2023-02-23T13:13:49;101099.69;;;10.86;91.24
14117;BME280;7137;51.436;6.544;2023-02-23T13:17:01;101103.69;;;10.65;91.81
14117;BME280;7137;51.436;6.544;2023-02-23T13:20:13;101108.78;;;10.36;92.55
14117;BME280;7137;51.436;6.544;2023-02-23T13:23:24;101101.44;;;10.52;92.49
14117;BME280;7137;51.436;6.544;2023-02-23T13:26:35;101097.06;;;10.17;92.86
14117;BME280;7137;51.436;6.544;2023-02-23T13:29:41;101108.19;;;10.25;93.15
14117;BME280;7137;51.436;6.544;2023-02-23T13:32:45;101099.16;;;10.38;93.17
14117;BME280;7137;51.436;6.544;2023-02-23T13:35:47;101107.41;;;10.57;93.12
14117;BME280;7137;51.436;6.544;2023-02-23T13:39:13;101108.63;;;10.44;93.18
14117;BME280;7137;51.436;6.544;2023-02-23T13:42:39;101106.69;;;10.50;92.21
14117;BME280;7137;51.436;6.544;2023-02-23T13:45:51;101103.94;;;10.19;92.77
14117;BME280;7137;51.436;6.544;2023-02-23T13:48:58;101108.38;;;10.16;94.22
14117;BME280;7137;51.436;6.544;2023-02-23T13:52:13;101107.41;;;10.21;94.28
14117;BME280;7137;51.436;6.544;2023-02-23T13:55:35;101099.75;;;10.12;93.82
14117;BME280;7137;51.436;6.544;2023-02-23T13:58:44;101103.22;;;10.14;93.80
14117;BME280;7137;51.436;6.544;2023-02-23T14:01:49;101104.38;;;10.01;95.08
14117;BME280;7137;51.436;6.544;2023-02-23T14:04:55;101097.13;;;10.12;95.13
14117;BME280;7137;51.436;6.544;2023-02-23T14:07:59;101101.47;;;10.13;94.54
14117;BME280;7137;51.436;6.544;2023-02-23T14:11:03;101105.28;;;9.98;94.45
14117;BME280;7137;51.436;6.544;2023-02-23T14:14:05;101098.97;;;10.08;93.84
14117;BME280;7137;51.436;6.544;2023-02-23T14:17:36;101095.31;;;10.17;94.18
14117;BME280;7137;51.436;6.544;2023-02-23T14:20:46;101103.06;;;10.20;94.00
14117;BME280;7137;51.436;6.544;2023-02-23T14:24:02;101111.28;;;10.03;93.74
14117;BME280;7137;51.436;6.544;2023-02-23T14:27:20;101104.97;;;10.14;94.03
14117;BME280;7137;51.436;6.544;2023-02-23T14:30:26;101112.72;;;10.17;93.53
14117;BME280;7137;51.436;6.544;2023-02-23T14:33:49;101110.22;;;10.49;94.16
14117;BME280;7137;51.436;6.544;2023-02-23T14:36:53;101107.00;;;10.74;91.87
14117;BME280;7137;51.436;6.544;2023-02-23T14:39:59;101116.91;;;10.93;91.15
14117;BME280;7137;51.436;6.544;2023-02-23T14:43:02;101110.97;;;11.19;88.82
14117;BME280;7137;51.436;6.544;2023-02-23T14:46:08;101110.66;;;11.32;87.01
14117;BME280;7137;51.436;6.544;2023-02-23T14:49:17;101113.31;;;11.30;88.64
14117;BME280;7137;51.436;6.544;2023-02-23T14:52:23;101108.88;;;11.01;87.62
14117;BME280;7137;51.436;6.544;2023-02-23T14:55:27;101107.72;;;11.11;88.64
14117;BME280;7137;51.436;6.544;2023-02-23T14:58:30;101099.81;;;11.14;88.80
14117;BME280;7137;51.436;6.544;2023-02-23T15:01:34;101104.47;;;11.34;88.07
14117;BME280;7137;51.436;6.544;2023-02-23T15:04:37;101110.78;;;11.27;87.11
14117;BME280;7137;51.436;6.544;2023-02-23T15:07:40;101117.94;;;11.20;87.78
14117;BME280;7137;51.436;6.544;2023-02-23T15:10:45;101118.44;;;11.02;88.16
14117;BME280;7137;51.436;6.544;2023-02-23T15:13:49;101116.28;;;10.85;88.87
14117;BME280;7137;51.436;6.544;2023-02-23T15:16:54;101112.72;;;10.88;89.31
14117;BME280;7137;51.436;6.544;2023-02-23T15:19:59;101117.63;;;11.00;88.62
14117;BME280;7137;51.436;6.544;2023-02-23T15:23:04;101123.00;;;10.94;88.85
14117;BME280;7137;51.436;6.544;2023-02-23T15:26:15;101123.94;;;10.91;88.44
14117;BME280;7137;51.436;6.544;2023-02-23T15:29:18;101123.09;;;10.91;87.83
14117;BME280;7137;51.436;6.544;2023-02-23T15:32:22;101117.97;;;10.86;88.64
14117;BME280;7137;51.436;6.544;2023-02-23T15:35:24;101106.09;;;10.75;88.84
14117;BME280;7137;51.436;6.544;2023-02-23T15:38:31;101117.19;;;10.49;88.21
14117;BME280;7137;51.436;6.544;2023-02-23T15:41:35;101122.19;;;10.22;87.94
14117;BME280;7137;51.436;6.544;2023-02-23T15:44:38;101130.06;;;10.19;89.20
14117;BME280;7137;51.436;6.544;2023-02-23T15:47:41;101129.34;;;10.11;89.14
14117;BME280;7137;51.436;6.544;2023-02-23T15:50:45;101127.88;;;10.01;90.47
14117;BME280;7137;51.436;6.544;2023-02-23T15:53:50;101131.38;;;10.00;89.26
14117;BME280;7137;51.436;6.544;2023-02-23T15:56:55;101119.25;;;9.96;89.27
14117;BME280;7137;51.436;6.544;2023-02-23T15:59:59;101118.75;;;9.80;91.25
14117;BME280;7137;51.436;6.544;2023-02-23T16:03:04;101114.03;;;9.96;90.77
14117;BME280;7137;51.436;6.544;2023-02-23T16:06:20;101114.50;;;10.13;91.02
14117;BME280;7137;51.436;6.544;2023-02-23T16:09:27;101114.34;;;10.21;91.06
14117;BME280;7137;51.436;6.544;2023-02-23T16:12:30;101118.72;;;10.20;90.20
14117;BME280;7137;51.436;6.544;2023-02-23T16:15:36;101116.81;;;10.28;90.13
14117;BME280;7137;51.436;6.544;2023-02-23T16:18:40;101119.03;;;10.45;89.20
14117;BME280;7137;51.436;6.544;2023-02-23T16:21:46;101122.63;;;10.39;89.54
14117;BME280;7137;51.436;6.544;2023-02-23T16:24:58;101120.94;;;10.37;88.83
14117;BME280;7137;51.436;6.544;2023-02-23T16:28:04;101127.81;;;10.41;89.35
14117;BME280;7137;51.436;6.544;2023-02-23T16:31:10;101122.66;;;10.38;89.38